Thompson, North Dakota
Current Conditions -  °F | °C
As of 9:53 PM on Friday 31 Oct 2014 (Local Time) from KGFK Reporting Station
Scattered Clouds Scattered Clouds  
Wind Chill: 24°   Ceiling: Unl
Heat Index: 33°   Visibility: 10mi
Dew Point: 20°   Wind: 12mph
Humidity: 59%   Direction: 170°S
Pressure: 30.34"   Gusts: NA
Location:  47.77°N, 97.11°W
Report Text: KGFK 010253Z 17010KT 10SM SCT250 01/M07 A3034 RMK AO2 SLP289 T00061067 56016
Loading
Personal Weather Stations






























Interactive Weather Map
Tropical Storm Tracking
New forecast layout! Learn more

10-Day Weather Forecast

Advertisements
Track Severe Weather on mobile